createdAt,value
2023-04-15T00:01:49.992Z,9.00
2023-04-15T00:04:17.210Z,12.00
2023-04-15T00:06:50.794Z,12.50
2023-04-15T00:09:17.745Z,9.50
2023-04-15T00:11:44.577Z,9.00
2023-04-15T00:14:11.509Z,8.25
2023-04-15T00:16:38.461Z,4.00
2023-04-15T00:19:05.489Z,15.25
2023-04-15T00:21:32.516Z,15.50
2023-04-15T00:23:59.482Z,18.00
2023-04-15T00:26:26.277Z,13.00
2023-04-15T00:28:53.542Z,11.00
2023-04-15T00:31:20.468Z,6.25
2023-04-15T00:33:47.507Z,11.25
2023-04-15T00:36:14.387Z,11.00
2023-04-15T00:38:41.249Z,17.00
2023-04-15T00:41:09.562Z,14.50
2023-04-15T00:43:36.637Z,15.00
2023-04-15T00:46:06.072Z,12.00
2023-04-15T00:48:33.353Z,11.00
2023-04-15T00:51:00.262Z,18.00
2023-04-15T00:53:27.204Z,11.00
2023-04-15T00:55:54.546Z,10.25
2023-04-15T00:58:21.663Z,9.00
2023-04-15T01:00:48.513Z,16.00
2023-04-15T01:03:15.560Z,19.25
2023-04-15T01:05:42.753Z,17.25
2023-04-15T01:08:09.713Z,13.00
2023-04-15T01:10:37.018Z,11.50
2023-04-15T01:13:04.289Z,10.00
2023-04-15T01:15:32.110Z,11.00
2023-04-15T01:18:03.061Z,9.75
2023-04-15T01:20:30.093Z,5.75
2023-04-15T01:22:57.034Z,11.75
2023-04-15T01:25:33.867Z,13.00
2023-04-15T01:28:01.141Z,11.00
2023-04-15T01:30:28.301Z,16.50
2023-04-15T01:32:55.310Z,20.00
2023-04-15T01:35:22.294Z,13.50
2023-04-15T01:37:51.960Z,7.50
2023-04-15T01:40:18.855Z,14.00
2023-04-15T01:42:45.668Z,14.00
2023-04-15T01:45:13.060Z,11.00
2023-04-15T01:47:40.148Z,10.50
2023-04-15T01:50:07.548Z,16.00
2023-04-15T01:52:34.413Z,19.00
2023-04-15T01:55:01.333Z,9.50
2023-04-15T01:57:28.325Z,8.00
2023-04-15T01:59:55.247Z,6.75
2023-04-15T02:02:22.261Z,4.00
2023-04-15T02:04:49.233Z,5.00
2023-04-15T02:07:16.576Z,7.00
2023-04-15T02:09:43.508Z,4.25
2023-04-15T02:12:10.343Z,5.25
2023-04-15T02:14:37.404Z,7.75
2023-04-15T02:17:04.237Z,12.00
2023-04-15T02:19:31.029Z,18.00
2023-04-15T02:21:57.875Z,10.50
2023-04-15T02:24:24.719Z,14.25
2023-04-15T02:26:51.595Z,10.25
2023-04-15T02:29:18.470Z,15.00
2023-04-15T02:31:45.419Z,15.00
2023-04-15T02:34:12.315Z,8.25
2023-04-15T02:36:44.432Z,7.00
2023-04-15T02:39:11.789Z,5.00
2023-04-15T02:41:38.898Z,5.00
2023-04-15T02:44:05.777Z,8.75
2023-04-15T02:46:32.705Z,15.00
2023-04-15T02:48:59.986Z,13.00
2023-04-15T02:51:31.231Z,11.00
2023-04-15T02:53:58.297Z,8.00
2023-04-15T02:56:25.256Z,6.00
2023-04-15T02:58:52.176Z,3.00
2023-04-15T03:01:19.229Z,10.75
2023-04-15T03:03:46.631Z,18.75
2023-04-15T03:06:13.605Z,20.00
2023-04-15T03:08:40.519Z,14.50
2023-04-15T03:11:07.422Z,18.50
2023-04-15T03:13:36.104Z,21.00
2023-04-15T03:16:10.664Z,18.00
2023-04-15T03:18:37.750Z,20.75
2023-04-15T03:21:05.102Z,23.00
2023-04-15T03:23:34.979Z,20.00
2023-04-15T03:26:03.590Z,17.25
2023-04-15T03:28:32.165Z,19.75
2023-04-15T03:31:00.086Z,18.25
2023-04-15T03:33:26.984Z,21.50
2023-04-15T03:35:54.085Z,22.00
2023-04-15T03:38:20.963Z,22.00
2023-04-15T03:40:47.818Z,22.00
2023-04-15T03:43:14.605Z,23.00
2023-04-15T03:45:41.580Z,22.75
2023-04-15T03:48:17.259Z,23.00
2023-04-15T03:50:45.414Z,21.00
2023-04-15T03:53:12.346Z,23.25
2023-04-15T03:55:39.240Z,19.00
2023-04-15T03:58:06.124Z,21.00
2023-04-15T04:00:33.275Z,24.25
2023-04-15T04:03:05.203Z,25.00
2023-04-15T04:05:35.559Z,22.50
2023-04-15T04:08:02.428Z,21.50
2023-04-15T04:10:29.269Z,23.00
2023-04-15T04:12:56.500Z,21.00
2023-04-15T04:15:23.386Z,20.00
2023-04-15T04:17:54.692Z,14.50
2023-04-15T04:20:21.717Z,19.00
2023-04-15T04:22:48.583Z,15.50
2023-04-15T04:25:19.737Z,15.50
2023-04-15T04:27:46.923Z,12.25
2023-04-15T04:30:13.935Z,17.00
2023-04-15T04:32:44.712Z,21.50
2023-04-15T04:35:13.923Z,18.25
2023-04-15T04:37:41.033Z,19.50
2023-04-15T04:40:09.796Z,22.00
2023-04-15T04:42:38.674Z,18.50
2023-04-15T04:45:07.532Z,20.75
2023-04-15T04:47:34.422Z,22.75
2023-04-15T04:50:03.856Z,15.50
2023-04-15T04:52:34.889Z,13.50
2023-04-15T04:55:04.430Z,20.00
2023-04-15T04:57:31.419Z,22.00
2023-04-15T04:59:58.434Z,20.00
2023-04-15T05:02:25.437Z,21.00
2023-04-15T05:04:52.397Z,21.00
2023-04-15T05:07:19.228Z,21.00
2023-04-15T05:09:46.127Z,22.00
2023-04-15T05:12:14.112Z,17.75
2023-04-15T05:14:50.793Z,16.00
2023-04-15T05:17:19.622Z,20.50
2023-04-15T05:19:46.565Z,16.00
2023-04-15T05:22:16.148Z,15.00
2023-04-15T05:24:43.105Z,15.00
2023-04-15T05:27:09.930Z,19.25
2023-04-15T05:29:36.729Z,19.50
2023-04-15T05:32:07.014Z,13.00
2023-04-15T05:34:33.933Z,13.00
2023-04-15T05:37:00.784Z,15.00
2023-04-15T05:39:27.942Z,18.00
2023-04-15T05:41:55.853Z,20.00
2023-04-15T05:44:23.739Z,16.00
2023-04-15T05:46:52.511Z,14.00
2023-04-15T05:49:19.317Z,12.00
2023-04-15T05:51:48.029Z,18.25
2023-04-15T05:54:20.004Z,21.75
2023-04-15T05:56:47.434Z,23.00
2023-04-15T05:59:14.266Z,23.00
2023-04-15T06:01:41.304Z,22.50
2023-04-15T06:04:09.407Z,24.00
2023-04-15T06:06:36.321Z,21.00
2023-04-15T06:09:03.340Z,19.50
2023-04-15T06:11:33.200Z,20.00
2023-04-15T06:16:52.829Z,21.75
2023-04-15T06:19:19.843Z,17.00
2023-04-15T06:22:06.698Z,20.00
2023-04-15T06:24:45.461Z,18.50
2023-04-15T06:27:12.362Z,16.00
2023-04-15T06:29:46.391Z,21.75
2023-04-15T06:32:13.321Z,22.00
2023-04-15T06:34:43.869Z,16.00
2023-04-15T06:37:10.854Z,14.50
2023-04-15T06:39:37.771Z,14.00
2023-04-15T06:42:04.871Z,15.75
2023-04-15T06:44:34.108Z,14.00
2023-04-15T06:47:01.275Z,21.00
2023-04-15T06:49:28.161Z,13.00
2023-04-15T06:51:55.558Z,16.50
2023-04-15T06:54:22.376Z,19.00
2023-04-15T06:56:49.364Z,14.00
2023-04-15T06:59:16.205Z,17.75
2023-04-15T07:01:45.840Z,19.00
2023-04-15T07:04:12.776Z,20.00
2023-04-15T07:06:39.676Z,18.00
2023-04-15T07:09:09.008Z,22.00
2023-04-15T07:11:36.106Z,17.50
2023-04-15T07:14:02.959Z,21.00
2023-04-15T07:16:30.211Z,18.25
2023-04-15T07:19:02.772Z,14.00
2023-04-15T07:21:29.889Z,16.25
2023-04-15T07:23:56.722Z,14.25
2023-04-15T07:26:23.805Z,14.50
2023-04-15T07:28:53.516Z,20.75
2023-04-15T07:31:20.504Z,24.25
2023-04-15T07:33:47.443Z,25.00
2023-04-15T07:36:14.362Z,20.75
2023-04-15T07:38:44.101Z,19.75
2023-04-15T07:41:11.560Z,19.75
2023-04-15T07:43:41.398Z,16.00
2023-04-15T07:46:08.376Z,19.00
2023-04-15T07:48:36.342Z,21.00
2023-04-15T07:51:04.763Z,21.00
2023-04-15T07:53:31.789Z,21.00
2023-04-15T07:55:59.515Z,21.00
2023-04-15T07:58:26.381Z,21.00
2023-04-15T08:00:53.415Z,22.00
2023-04-15T08:03:20.352Z,23.50
2023-04-15T08:05:50.641Z,21.00
2023-04-15T08:08:17.448Z,23.75
2023-04-15T08:10:45.355Z,23.00
2023-04-15T08:13:14.877Z,22.00
2023-04-15T08:15:44.632Z,24.00
2023-04-15T08:18:11.535Z,23.00
2023-04-15T08:20:38.488Z,23.00
2023-04-15T08:23:08.591Z,24.00
2023-04-15T08:25:35.466Z,22.00
2023-04-15T08:28:05.426Z,24.00
2023-04-15T08:30:34.868Z,22.00
2023-04-15T08:33:01.991Z,22.00
2023-04-15T08:35:28.850Z,21.00
2023-04-15T08:37:55.754Z,24.00
2023-04-15T08:40:28.327Z,24.00
2023-04-15T08:42:59.133Z,22.00
2023-04-15T08:45:26.428Z,20.50
2023-04-15T08:47:56.304Z,20.00
2023-04-15T08:50:25.123Z,21.75
2023-04-15T08:52:55.924Z,20.00
2023-04-15T08:55:24.040Z,22.50
2023-04-15T08:57:54.014Z,24.25
2023-04-15T09:00:21.193Z,23.50
2023-04-15T09:02:48.478Z,24.00
2023-04-15T09:05:15.716Z,22.00
2023-04-15T09:07:42.698Z,22.00
2023-04-15T09:10:10.349Z,24.00
2023-04-15T09:12:38.857Z,25.00
2023-04-15T09:15:06.382Z,23.50
2023-04-15T09:17:34.023Z,24.00
2023-04-15T09:20:14.128Z,25.00
2023-04-15T09:22:42.149Z,22.25
2023-04-15T09:25:23.989Z,24.00
2023-04-15T09:28:00.155Z,20.00
2023-04-15T09:30:32.722Z,20.00
2023-04-15T09:33:01.847Z,23.50
2023-04-15T09:35:29.273Z,24.00
2023-04-15T09:38:07.424Z,25.25
2023-04-15T09:40:39.268Z,25.00
2023-04-15T09:43:10.233Z,24.50
2023-04-15T09:45:37.357Z,23.25
2023-04-15T09:48:22.656Z,21.00
2023-04-15T09:50:52.102Z,23.00
2023-04-15T09:53:28.868Z,24.50
2023-04-15T09:55:59.377Z,25.50
2023-04-15T09:58:28.987Z,25.75
2023-04-15T10:00:58.389Z,22.00
2023-04-15T10:03:31.906Z,24.00
2023-04-15T10:06:02.497Z,21.00
2023-04-15T10:08:36.457Z,25.00
2023-04-15T10:11:06.834Z,24.00
2023-04-15T10:13:34.012Z,26.00
2023-04-15T10:16:11.480Z,24.00
2023-04-15T10:18:44.857Z,25.00
2023-04-15T10:21:12.683Z,26.00
2023-04-15T10:23:40.390Z,22.50
2023-04-15T10:26:08.681Z,22.00
2023-04-15T10:28:35.661Z,22.75
2023-04-15T10:31:06.856Z,25.00
2023-04-15T10:33:35.144Z,25.00
2023-04-15T10:36:14.951Z,25.50
2023-04-15T10:38:44.650Z,26.00
2023-04-15T10:41:24.528Z,25.00
2023-04-15T10:43:54.561Z,24.00
2023-04-15T10:47:04.124Z,22.00
2023-04-15T10:49:33.531Z,24.00
2023-04-15T10:52:24.162Z,25.00
2023-04-15T10:55:22.557Z,26.00
2023-04-15T10:57:54.888Z,26.50
2023-04-15T11:00:26.141Z,24.00
2023-04-15T11:02:53.126Z,26.75
2023-04-15T11:05:22.279Z,25.50
2023-04-15T11:07:56.560Z,24.00
2023-04-15T11:10:26.355Z,21.25
2023-04-15T11:13:12.874Z,24.50
2023-04-15T11:15:41.132Z,26.00
2023-04-15T11:18:11.951Z,24.00
2023-04-15T11:20:41.232Z,26.50
2023-04-15T11:23:34.329Z,25.50
2023-04-15T11:26:03.271Z,27.25
2023-04-15T11:28:32.321Z,27.50
2023-04-15T11:31:10.326Z,23.00
2023-04-15T11:33:38.214Z,25.00
2023-04-15T11:36:05.416Z,22.75
2023-04-15T11:38:34.786Z,25.50
2023-04-15T11:41:02.460Z,27.00
2023-04-15T11:43:32.527Z,26.00
2023-04-15T11:46:18.155Z,24.75
2023-04-15T11:48:47.129Z,25.75
2023-04-15T11:51:14.895Z,25.00
2023-04-15T11:53:47.141Z,24.00
2023-04-15T11:56:22.633Z,27.50
2023-04-15T11:58:53.137Z,25.50
2023-04-15T12:01:26.328Z,21.25
2023-04-15T12:04:20.712Z,25.75
2023-04-15T12:07:04.488Z,26.00
2023-04-15T12:09:37.968Z,25.50
2023-04-15T12:12:06.909Z,22.50
2023-04-15T12:14:40.244Z,24.75
2023-04-15T12:17:07.256Z,25.00
2023-04-15T12:19:56.681Z,25.00
2023-04-15T12:22:23.630Z,25.75
2023-04-15T12:24:55.520Z,26.00
2023-04-15T12:27:29.869Z,23.00
2023-04-15T12:30:05.108Z,25.75
2023-04-15T12:32:36.209Z,23.50
2023-04-15T12:35:14.570Z,23.00
2023-04-15T12:37:42.743Z,23.75
2023-04-15T12:40:10.175Z,24.50
2023-04-15T12:42:37.284Z,23.50
2023-04-15T12:45:06.891Z,25.50
2023-04-15T12:50:42.897Z,26.00
2023-04-15T12:53:12.094Z,28.50
2023-04-15T12:55:42.726Z,28.00
2023-04-15T12:58:09.564Z,26.50
2023-04-15T13:00:45.412Z,27.00
2023-04-15T13:03:12.570Z,27.25
2023-04-15T13:05:39.524Z,23.00
2023-04-15T13:08:06.656Z,21.00
2023-04-15T13:10:36.426Z,23.25
2023-04-15T13:13:19.827Z,25.00
2023-04-15T13:15:54.164Z,25.00
2023-04-15T13:18:26.788Z,25.50
2023-04-15T13:21:25.006Z,26.00
2023-04-15T13:23:47.106Z,25.00
2023-04-15T13:26:17.943Z,25.00
2023-04-15T13:28:46.477Z,22.00
2023-04-15T13:34:00.225Z,24.50
2023-04-15T13:36:27.952Z,25.00
2023-04-15T13:38:58.007Z,25.00
2023-04-15T13:41:25.099Z,24.00
2023-04-15T13:43:54.155Z,24.00
2023-04-15T13:46:33.559Z,25.50
2023-04-15T13:49:00.741Z,24.50
2023-04-15T13:51:27.731Z,25.00
2023-04-15T13:53:54.721Z,24.50
2023-04-15T13:56:31.944Z,24.50
2023-04-15T13:59:00.190Z,25.00
2023-04-15T14:01:30.680Z,24.00
2023-04-15T14:04:01.119Z,25.00
2023-04-15T14:06:31.478Z,22.00
2023-04-15T14:09:02.111Z,23.00
2023-04-15T14:11:30.413Z,22.50
2023-04-15T14:13:57.383Z,23.00
2023-04-15T14:16:24.286Z,24.75
2023-04-15T14:18:54.256Z,24.00
2023-04-15T14:21:28.415Z,25.00
2023-04-15T14:24:02.639Z,27.00
2023-04-15T14:26:33.636Z,26.00
2023-04-15T14:29:00.592Z,23.50
2023-04-15T14:31:35.633Z,22.00
2023-04-15T14:34:06.505Z,25.75
2023-04-15T14:36:33.870Z,27.00
2023-04-15T14:39:03.822Z,25.25
2023-04-15T14:41:31.125Z,25.00
2023-04-15T14:44:06.264Z,24.00
2023-04-15T14:46:36.345Z,23.50
2023-04-15T14:49:03.397Z,24.50
2023-04-15T14:51:30.473Z,22.50
2023-04-15T14:53:57.442Z,24.50
2023-04-15T14:56:24.488Z,26.00
2023-04-15T14:58:51.436Z,25.00
2023-04-15T15:01:18.384Z,22.00
2023-04-15T15:03:45.543Z,26.25
2023-04-15T15:06:12.720Z,25.00
2023-04-15T15:08:39.579Z,25.50
2023-04-15T15:11:10.237Z,25.00
2023-04-15T15:13:37.459Z,26.00
2023-04-15T15:16:07.274Z,28.00
2023-04-15T15:18:34.232Z,23.25
2023-04-15T15:21:01.136Z,23.00
2023-04-15T15:23:28.131Z,25.00
2023-04-15T15:25:55.344Z,25.50
2023-04-15T15:28:26.397Z,25.00
2023-04-15T15:30:55.250Z,25.00
2023-04-15T15:33:24.786Z,24.00
2023-04-15T15:35:54.340Z,21.75
2023-04-15T15:38:24.604Z,24.25
2023-04-15T15:40:51.474Z,25.50
2023-04-15T15:43:18.316Z,25.00
2023-04-15T15:45:45.804Z,24.75
2023-04-15T15:48:12.788Z,24.25
2023-04-15T15:50:39.794Z,24.00
2023-04-15T15:53:06.679Z,24.50
2023-04-15T15:55:36.064Z,25.00
2023-04-15T15:58:11.657Z,25.25
2023-04-15T16:00:38.620Z,24.00
2023-04-15T16:03:07.299Z,21.25
2023-04-15T16:05:35.698Z,24.50
2023-04-15T16:08:02.762Z,21.00
2023-04-15T16:10:29.932Z,19.50
2023-04-15T16:12:56.859Z,19.00
2023-04-15T16:15:30.127Z,23.50
2023-04-15T16:17:57.227Z,21.00
2023-04-15T16:20:24.186Z,21.50
2023-04-15T16:22:51.081Z,26.25
2023-04-15T16:25:18.194Z,26.00
2023-04-15T16:27:58.893Z,24.50
2023-04-15T16:30:28.250Z,26.00
2023-04-15T16:32:55.273Z,26.00
2023-04-15T16:35:22.336Z,21.50
2023-04-15T16:37:49.455Z,23.75
2023-04-15T16:40:16.419Z,26.25
2023-04-15T16:42:43.402Z,27.00
2023-04-15T16:45:10.733Z,26.00
2023-04-15T16:47:37.743Z,23.00
2023-04-15T16:50:05.252Z,25.50
2023-04-15T16:52:32.819Z,25.00
2023-04-15T16:54:59.729Z,24.00
2023-04-15T16:57:31.641Z,24.25
2023-04-15T17:00:14.113Z,24.00
2023-04-15T17:02:41.112Z,24.00
2023-04-15T17:05:08.760Z,26.00
2023-04-15T17:07:35.756Z,24.00
2023-04-15T17:10:02.876Z,24.00
2023-04-15T17:12:30.232Z,24.00
2023-04-15T17:14:57.256Z,22.00
2023-04-15T17:17:24.197Z,24.00
2023-04-15T17:19:51.142Z,26.00
2023-04-15T17:22:18.378Z,26.00
2023-04-15T17:24:45.340Z,27.00
2023-04-15T17:27:33.337Z,26.00
2023-04-15T17:30:19.185Z,24.00
2023-04-15T17:32:46.246Z,23.50
2023-04-15T17:35:13.255Z,26.00
2023-04-15T17:37:40.232Z,28.00
2023-04-15T17:40:08.785Z,25.00
2023-04-15T17:42:36.000Z,24.00
2023-04-15T17:45:02.958Z,25.50
2023-04-15T17:47:30.008Z,25.00
2023-04-15T17:49:56.907Z,26.00
2023-04-15T17:52:24.103Z,29.00
2023-04-15T17:54:52.765Z,26.00
2023-04-15T17:57:22.188Z,25.00
2023-04-15T17:59:53.852Z,24.00
2023-04-15T18:02:22.058Z,21.00
2023-04-15T18:04:50.073Z,23.25
2023-04-15T18:07:17.353Z,27.50
2023-04-15T18:09:44.552Z,25.50
2023-04-15T18:12:13.849Z,25.50
2023-04-15T18:14:43.809Z,24.00
2023-04-15T18:17:11.306Z,24.00
2023-04-15T18:19:38.176Z,22.50
2023-04-15T18:22:07.752Z,22.25
2023-04-15T18:24:34.882Z,23.50
2023-04-15T18:27:04.268Z,23.50
2023-04-15T18:29:33.804Z,26.00
2023-04-15T18:32:00.886Z,28.00
2023-04-15T18:34:27.849Z,30.75
2023-04-15T18:36:56.538Z,33.00
2023-04-15T18:39:23.566Z,26.25
2023-04-15T18:41:50.383Z,26.00
2023-04-15T18:44:35.762Z,27.50
2023-04-15T18:47:02.731Z,25.50
2023-04-15T18:49:31.933Z,25.00
2023-04-15T18:52:17.538Z,26.50
2023-04-15T18:54:44.521Z,25.75
2023-04-15T18:57:14.303Z,27.00
2023-04-15T18:59:47.374Z,23.50
2023-04-15T19:02:14.277Z,21.00
2023-04-15T19:04:41.169Z,22.50
2023-04-15T19:07:08.066Z,23.00
2023-04-15T19:09:34.932Z,23.25
2023-04-15T19:12:20.490Z,23.00
2023-04-15T19:14:47.506Z,24.75
2023-04-15T19:17:14.565Z,25.00
2023-04-15T19:19:41.531Z,23.00
2023-04-15T19:22:09.514Z,26.25
2023-04-15T19:24:36.604Z,28.00
2023-04-15T19:27:03.677Z,25.50
2023-04-15T19:29:49.213Z,24.00
2023-04-15T19:32:16.352Z,23.00
2023-04-15T19:35:02.123Z,24.00
2023-04-15T19:37:29.327Z,26.50
2023-04-15T19:40:14.829Z,24.00
2023-04-15T19:42:41.959Z,21.75
2023-04-15T19:45:09.125Z,21.00
2023-04-15T19:47:36.717Z,24.25
2023-04-15T19:50:03.816Z,25.00
2023-04-15T19:52:30.731Z,26.75
2023-04-15T19:54:57.555Z,24.50
2023-04-15T19:57:24.486Z,21.00
2023-04-15T20:00:09.873Z,19.25
2023-04-15T20:02:37.014Z,25.25
2023-04-15T20:05:04.475Z,21.75
2023-04-15T20:07:52.333Z,21.00
2023-04-15T20:10:20.652Z,23.25
2023-04-15T20:12:50.882Z,21.25
2023-04-15T20:15:19.812Z,22.00
2023-04-15T20:17:46.770Z,21.00
2023-04-15T20:20:13.743Z,20.00
2023-04-15T20:22:40.813Z,24.00
2023-04-15T20:25:08.052Z,26.00
2023-04-15T20:27:34.914Z,24.00
2023-04-15T20:30:01.930Z,24.00
2023-04-15T20:32:28.857Z,26.00
2023-04-15T20:34:55.778Z,23.00
2023-04-15T20:37:22.717Z,24.00
2023-04-15T20:39:49.828Z,24.00
2023-04-15T20:42:17.647Z,26.75
2023-04-15T20:44:44.741Z,25.00
2023-04-15T20:47:11.614Z,22.25
2023-04-15T20:49:39.923Z,18.50
2023-04-15T20:52:08.220Z,19.00
2023-04-15T20:54:35.749Z,24.00
2023-04-15T20:57:02.906Z,22.00
2023-04-15T20:59:29.962Z,22.00
2023-04-15T21:01:56.991Z,24.00
2023-04-15T21:04:24.836Z,23.00
2023-04-15T21:06:51.977Z,20.50
2023-04-15T21:09:18.974Z,21.00
2023-04-15T21:12:00.553Z,16.00
2023-04-15T21:14:28.704Z,15.50
2023-04-15T21:16:57.446Z,16.50
2023-04-15T21:19:24.433Z,18.50
2023-04-15T21:21:51.323Z,17.25
2023-04-15T21:24:18.388Z,19.00
2023-04-15T21:26:45.248Z,22.25
2023-04-15T21:29:12.465Z,20.00
2023-04-15T21:31:40.341Z,18.50
2023-04-15T21:34:07.453Z,22.75
2023-04-15T21:36:34.726Z,24.25
2023-04-15T21:39:01.722Z,20.00
2023-04-15T21:41:28.710Z,24.00
2023-04-15T21:43:56.076Z,20.50
2023-04-15T21:46:25.281Z,15.50
2023-04-15T21:48:53.614Z,24.75
2023-04-15T21:51:20.778Z,20.75
2023-04-15T21:53:47.904Z,17.75
2023-04-15T21:56:14.882Z,18.75
2023-04-15T21:58:41.870Z,13.50
2023-04-15T22:01:08.740Z,20.75
2023-04-15T22:03:35.990Z,24.00
2023-04-15T22:06:03.687Z,24.50
2023-04-15T22:08:41.353Z,22.25
2023-04-15T22:11:19.476Z,19.75
2023-04-15T22:13:46.357Z,22.75
2023-04-15T22:16:13.271Z,20.50
2023-04-15T22:18:40.490Z,15.75
2023-04-15T22:21:07.342Z,16.00
2023-04-15T22:23:34.349Z,20.00
2023-04-15T22:26:01.212Z,20.50
2023-04-15T22:28:28.227Z,21.00
2023-04-15T22:30:55.134Z,24.25
2023-04-15T22:33:22.106Z,21.75
2023-04-15T22:35:48.943Z,20.00
2023-04-15T22:38:15.984Z,20.00
2023-04-15T22:40:42.869Z,18.25
2023-04-15T22:43:09.759Z,16.25
2023-04-15T22:45:36.615Z,16.00
2023-04-15T22:48:03.679Z,15.00
2023-04-15T22:50:31.185Z,20.75
2023-04-15T22:52:58.147Z,20.00
2023-04-15T22:55:25.180Z,18.25
2023-04-15T22:57:52.215Z,16.00
2023-04-15T23:00:19.107Z,16.00
2023-04-15T23:02:46.486Z,16.00
2023-04-15T23:05:13.678Z,16.00
2023-04-15T23:07:40.728Z,20.00
2023-04-15T23:10:08.237Z,15.75
2023-04-15T23:12:35.216Z,12.25
2023-04-15T23:15:03.810Z,11.00
2023-04-15T23:17:30.763Z,17.00
2023-04-15T23:19:57.634Z,22.00
2023-04-15T23:22:24.818Z,21.00
2023-04-15T23:24:51.745Z,20.50
2023-04-15T23:27:18.726Z,18.75
2023-04-15T23:29:45.633Z,17.00
2023-04-15T23:32:12.630Z,21.50
2023-04-15T23:34:39.438Z,21.00
2023-04-15T23:37:06.403Z,22.50
2023-04-15T23:39:33.289Z,22.00
2023-04-15T23:42:00.196Z,20.00
2023-04-15T23:44:27.826Z,20.00
2023-04-15T23:46:54.865Z,22.00
2023-04-15T23:49:21.713Z,24.00
2023-04-15T23:51:48.633Z,20.00
2023-04-15T23:54:15.612Z,18.00
2023-04-15T23:56:42.587Z,16.25
2023-04-15T23:59:09.679Z,22.25
